createdAt,value
2024-04-18T00:00:27.259Z,1004.74
2024-04-18T00:00:42.950Z,1004.64
2024-04-18T00:01:14.370Z,1004.64
2024-04-18T00:01:35.786Z,1004.84
2024-04-18T00:02:02.442Z,1004.84
2024-04-18T00:02:34.855Z,1004.84
2024-04-18T00:03:06.428Z,1004.74
2024-04-18T00:03:34.901Z,1004.64
2024-04-18T00:03:54.395Z,1004.64
2024-04-18T00:04:26.503Z,1004.64
2024-04-18T00:04:42.868Z,1004.74
2024-04-18T00:05:14.871Z,1004.74
2024-04-18T00:05:35.770Z,1004.74
2024-04-18T00:06:02.876Z,1004.74
2024-04-18T00:06:34.436Z,1004.74
2024-04-18T00:07:06.326Z,1004.74
2024-04-18T00:07:35.184Z,1004.84
2024-04-18T00:07:54.354Z,1004.84
2024-04-18T00:08:26.410Z,1004.84
2024-04-18T00:08:43.645Z,1004.74
2024-04-18T00:09:14.333Z,1004.74
2024-04-18T00:09:35.820Z,1004.74
2024-04-18T00:10:02.736Z,1004.74
2024-04-18T00:10:35.014Z,1004.74
2024-04-18T00:11:06.358Z,1004.54
2024-04-18T00:11:34.764Z,1004.84
2024-04-18T00:11:55.310Z,1004.84
2024-04-18T00:12:26.615Z,1004.84
2024-04-18T00:12:42.890Z,1004.91
2024-04-18T00:13:14.301Z,1004.91
2024-04-18T00:13:35.763Z,1004.64
2024-04-18T00:14:02.321Z,1004.64
2024-04-18T00:14:34.383Z,1004.64
2024-04-18T00:15:07.716Z,1004.64
2024-04-18T00:15:34.916Z,1004.74
2024-04-18T00:15:54.911Z,1004.74
2024-04-18T00:16:26.699Z,1004.74
2024-04-18T00:16:58.444Z,1004.74
2024-04-18T00:17:30.484Z,1004.74
2024-04-18T00:18:02.742Z,1004.91
2024-04-18T00:18:34.655Z,1004.91
2024-04-18T00:19:06.397Z,1004.74
2024-04-18T00:19:34.776Z,1004.84
2024-04-18T00:19:54.293Z,1004.84
2024-04-18T00:20:26.712Z,1004.84
2024-04-18T00:20:42.812Z,1004.84
2024-04-18T00:21:14.365Z,1004.84
2024-04-18T00:21:35.864Z,1004.74
2024-04-18T00:22:02.351Z,1004.74
2024-04-18T00:22:34.583Z,1004.74
2024-04-18T00:23:06.312Z,1004.84
2024-04-18T00:23:34.767Z,1005.01
2024-04-18T00:23:54.292Z,1005.01
2024-04-18T00:24:44.466Z,1005.01
2024-04-18T00:24:58.424Z,1004.84
2024-04-18T00:25:30.677Z,1004.84
2024-04-18T00:26:02.322Z,1004.74
2024-04-18T00:26:34.389Z,1004.74
2024-04-18T00:27:06.350Z,1004.84
2024-04-18T00:27:35.294Z,1005.01
2024-04-18T00:27:55.329Z,1005.01
2024-04-18T00:28:26.449Z,1005.01
2024-04-18T00:28:42.829Z,1004.74
2024-04-18T00:29:14.343Z,1004.74
2024-04-18T00:29:35.764Z,1005.01
2024-04-18T00:30:25.123Z,1005.01
2024-04-18T00:30:34.353Z,1005.01
2024-04-18T00:31:07.122Z,1004.64
2024-04-18T00:31:35.017Z,1005.01
2024-04-18T00:31:54.353Z,1005.01
2024-04-18T00:32:26.356Z,1005.01
2024-04-18T00:32:42.886Z,1004.84
2024-04-18T00:33:14.423Z,1004.84
2024-04-18T00:33:35.833Z,1004.54
2024-04-18T00:34:02.421Z,1004.54
2024-04-18T00:34:34.530Z,1004.54
2024-04-18T00:35:06.670Z,1004.74
2024-04-18T00:35:35.360Z,1004.74
2024-04-18T00:35:54.629Z,1004.74
2024-04-18T00:36:26.802Z,1004.74
2024-04-18T00:36:42.939Z,1004.74
2024-04-18T00:37:16.573Z,1004.74
2024-04-18T00:37:35.792Z,1004.91
2024-04-18T00:38:02.338Z,1004.91
2024-04-18T00:38:34.341Z,1004.91
2024-04-18T00:39:06.332Z,1004.91
2024-04-18T00:39:35.386Z,1004.74
2024-04-18T00:39:54.374Z,1004.74
2024-04-18T00:40:27.335Z,1004.74
2024-04-18T00:40:58.653Z,1004.74
2024-04-18T00:41:30.928Z,1004.74
2024-04-18T00:42:04.465Z,1004.84
2024-04-18T00:42:34.667Z,1004.84
2024-04-18T00:43:07.172Z,1004.74
2024-04-18T00:43:34.810Z,1005.01
2024-04-18T00:43:55.586Z,1005.01
2024-04-18T00:44:27.273Z,1005.01
2024-04-18T00:44:43.836Z,1004.64
2024-04-18T00:45:15.481Z,1004.64
2024-04-18T00:45:36.208Z,1004.84
2024-04-18T00:46:02.678Z,1004.84
2024-04-18T00:46:34.945Z,1004.84
2024-04-18T00:47:07.401Z,1004.84
2024-04-18T00:47:35.729Z,1004.84
2024-04-18T00:47:54.632Z,1004.84
2024-04-18T00:48:26.940Z,1004.84
2024-04-18T00:48:58.764Z,1004.91
2024-04-18T00:49:30.792Z,1004.91
2024-04-18T00:50:03.048Z,1004.91
2024-04-18T00:50:34.444Z,1004.91
2024-04-18T00:51:06.578Z,1004.84
2024-04-18T00:51:35.070Z,1005.01
2024-04-18T00:51:54.403Z,1005.01
2024-04-18T00:52:26.746Z,1005.01
2024-04-18T00:52:42.934Z,1004.84
2024-04-18T00:53:14.728Z,1004.84
2024-04-18T00:53:36.065Z,1004.91
2024-04-18T00:54:02.667Z,1004.91
2024-04-18T00:54:35.167Z,1004.91
2024-04-18T00:55:06.810Z,1004.84
2024-04-18T00:55:34.842Z,1004.91
2024-04-18T00:55:54.703Z,1004.91
2024-04-18T00:56:26.432Z,1004.91
2024-04-18T00:56:58.550Z,1004.74
2024-04-18T00:57:30.757Z,1004.74
2024-04-18T00:58:02.536Z,1004.74
2024-04-18T00:58:34.470Z,1004.74
2024-04-18T00:59:06.548Z,1004.74
2024-04-18T00:59:35.033Z,1004.91
2024-04-18T00:59:55.491Z,1004.91
2024-04-18T01:00:39.239Z,1004.91
2024-04-18T01:00:43.240Z,1004.84
2024-04-18T01:01:14.604Z,1004.84
2024-04-18T01:01:35.954Z,1004.74
2024-04-18T01:02:02.489Z,1004.74
2024-04-18T01:02:34.790Z,1004.74
2024-04-18T01:03:07.269Z,1004.74
2024-04-18T01:03:35.003Z,1004.84
2024-04-18T01:03:54.525Z,1004.84
2024-04-18T01:04:26.637Z,1004.84
2024-04-18T01:04:43.462Z,1004.74
2024-04-18T01:05:14.907Z,1004.74
2024-04-18T01:05:35.874Z,1004.84
2024-04-18T01:06:02.710Z,1004.84
2024-04-18T01:06:34.541Z,1004.84
2024-04-18T01:07:06.473Z,1004.84
2024-04-18T01:07:35.105Z,1004.64
2024-04-18T01:07:54.661Z,1004.64
2024-04-18T01:08:26.464Z,1004.64
2024-04-18T01:08:43.102Z,1004.64
2024-04-18T01:09:14.471Z,1004.64
2024-04-18T01:09:35.812Z,1004.74
2024-04-18T01:10:02.824Z,1004.74
2024-04-18T01:10:34.398Z,1004.74
2024-04-18T01:11:06.366Z,1004.91
2024-04-18T01:11:34.839Z,1005.01
2024-04-18T01:11:54.416Z,1005.01
2024-04-18T01:12:26.645Z,1005.01
2024-04-18T01:12:58.396Z,1004.91
2024-04-18T01:13:30.409Z,1004.91
2024-04-18T01:14:02.391Z,1004.74
2024-04-18T01:14:34.783Z,1004.74
2024-04-18T01:15:06.858Z,1004.74
2024-04-18T01:15:35.282Z,1004.91
2024-04-18T01:15:55.663Z,1004.91
2024-04-18T01:16:26.344Z,1004.91
2024-04-18T01:16:58.437Z,1004.74
2024-04-18T01:17:30.424Z,1004.74
2024-04-18T01:18:02.779Z,1004.91
2024-04-18T01:18:34.720Z,1004.91
2024-04-18T01:19:07.076Z,1004.91
2024-04-18T01:19:34.794Z,1004.84
2024-04-18T01:19:54.375Z,1004.84
2024-04-18T01:20:26.630Z,1004.84
2024-04-18T01:20:58.519Z,1004.84
2024-04-18T01:21:30.416Z,1004.84
2024-04-18T01:22:05.186Z,1004.74
2024-04-18T01:22:34.391Z,1004.74
2024-04-18T01:23:06.429Z,1005.01
2024-04-18T01:23:34.753Z,1004.84
2024-04-18T01:23:54.336Z,1004.84
2024-04-18T01:24:26.529Z,1004.84
2024-04-18T01:24:58.438Z,1005.01
2024-04-18T01:25:31.422Z,1005.01
2024-04-18T01:26:02.361Z,1004.74
2024-04-18T01:26:34.340Z,1004.74
2024-04-18T01:27:06.370Z,1004.91
2024-04-18T01:27:35.266Z,1004.91
2024-04-18T01:27:54.346Z,1004.91
2024-04-18T01:28:26.371Z,1004.91
2024-04-18T01:28:58.735Z,1004.91
2024-04-18T01:29:30.395Z,1004.91
2024-04-18T01:30:03.141Z,1004.91
2024-04-18T01:30:34.979Z,1004.91
2024-04-18T01:31:06.413Z,1004.91
2024-04-18T01:31:34.772Z,1004.84
2024-04-18T01:31:55.350Z,1004.84
2024-04-18T01:32:26.402Z,1004.84
2024-04-18T01:32:58.462Z,1004.84
2024-04-18T01:33:30.556Z,1004.84
2024-04-18T01:34:02.586Z,1004.91
2024-04-18T01:34:34.452Z,1004.91
2024-04-18T01:35:07.387Z,1005.01
2024-04-18T01:35:34.765Z,1004.84
2024-04-18T01:35:54.665Z,1004.84
2024-04-18T01:36:26.580Z,1004.84
2024-04-18T01:36:58.453Z,1004.84
2024-04-18T01:37:30.398Z,1004.84
2024-04-18T01:38:02.402Z,1004.74
2024-04-18T01:38:34.951Z,1004.74
2024-04-18T01:39:06.411Z,1005.01
2024-04-18T01:39:34.939Z,1005.01
2024-04-18T01:39:54.393Z,1005.01
2024-04-18T01:40:29.094Z,1005.01
2024-04-18T01:40:58.436Z,1004.84
2024-04-18T01:41:31.191Z,1004.84
2024-04-18T01:42:02.606Z,1005.11
2024-04-18T01:42:35.187Z,1005.11
2024-04-18T01:43:06.358Z,1004.91
2024-04-18T01:43:35.412Z,1005.01
2024-04-18T01:43:54.362Z,1005.01
2024-04-18T01:44:26.372Z,1005.01
2024-04-18T01:44:58.413Z,1005.11
2024-04-18T01:45:30.925Z,1005.11
2024-04-18T01:46:02.574Z,1005.01
2024-04-18T01:46:35.307Z,1005.01
2024-04-18T01:47:06.370Z,1005.01
2024-04-18T01:47:34.831Z,1004.91
2024-04-18T01:47:55.498Z,1004.91
2024-04-18T01:48:26.706Z,1004.91
2024-04-18T01:48:58.477Z,1005.11
2024-04-18T01:49:30.373Z,1005.11
2024-04-18T01:50:02.628Z,1004.84
2024-04-18T01:50:34.387Z,1004.84
2024-04-18T01:51:07.106Z,1004.84
2024-04-18T01:51:35.036Z,1004.91
2024-04-18T01:51:54.430Z,1004.91
2024-04-18T01:52:26.379Z,1004.91
2024-04-18T01:52:58.467Z,1005.01
2024-04-18T01:53:30.365Z,1005.01
2024-04-18T01:54:02.590Z,1004.84
2024-04-18T01:54:35.289Z,1004.84
2024-04-18T01:55:06.664Z,1004.84
2024-04-18T01:55:35.024Z,1004.91
2024-04-18T01:55:54.635Z,1004.91
2024-04-18T01:56:26.409Z,1004.91
2024-04-18T01:56:58.563Z,1005.01
2024-04-18T01:57:31.363Z,1005.01
2024-04-18T01:58:02.363Z,1004.91
2024-04-18T01:58:34.347Z,1004.91
2024-04-18T01:59:06.350Z,1004.91
2024-04-18T01:59:35.211Z,1005.11
2024-04-18T01:59:54.355Z,1005.11
2024-04-18T02:00:27.167Z,1005.11
2024-04-18T02:00:58.679Z,1005.01
2024-04-18T02:01:30.468Z,1005.01
2024-04-18T02:02:02.407Z,1005.11
2024-04-18T02:02:34.568Z,1005.11
2024-04-18T02:03:06.489Z,1005.01
2024-04-18T02:03:35.210Z,1004.91
2024-04-18T02:03:55.733Z,1004.91
2024-04-18T02:04:26.519Z,1004.91
2024-04-18T02:04:58.538Z,1005.01
2024-04-18T02:05:30.852Z,1005.01
2024-04-18T02:06:02.647Z,1004.74
2024-04-18T02:06:34.523Z,1004.74
2024-04-18T02:07:07.031Z,1005.11
2024-04-18T02:07:34.823Z,1005.01
2024-04-18T02:07:54.437Z,1005.01
2024-04-18T02:08:26.422Z,1005.01
2024-04-18T02:08:58.541Z,1005.11
2024-04-18T02:09:30.516Z,1005.11
2024-04-18T02:10:02.698Z,1004.91
2024-04-18T02:10:36.223Z,1004.91
2024-04-18T02:11:06.457Z,1005.11
2024-04-18T02:11:34.761Z,1005.01
2024-04-18T02:11:54.369Z,1005.01
2024-04-18T02:12:26.657Z,1005.01
2024-04-18T02:12:58.429Z,1005.11
2024-04-18T02:13:31.253Z,1005.11
2024-04-18T02:14:02.381Z,1005.11
2024-04-18T02:14:34.350Z,1005.11
2024-04-18T02:15:06.889Z,1005.01
2024-04-18T02:15:34.789Z,1004.91
2024-04-18T02:15:54.648Z,1004.91
2024-04-18T02:16:26.394Z,1004.91
2024-04-18T02:16:58.459Z,1005.11
2024-04-18T02:17:30.428Z,1005.11
2024-04-18T02:18:02.677Z,1005.21
2024-04-18T02:18:34.433Z,1005.21
2024-04-18T02:19:06.422Z,1005.01
2024-04-18T02:19:34.759Z,1005.21
2024-04-18T02:19:55.316Z,1005.21
2024-04-18T02:20:26.723Z,1005.21
2024-04-18T02:20:58.747Z,1005.11
2024-04-18T02:21:30.391Z,1005.11
2024-04-18T02:22:02.375Z,1005.01
2024-04-18T02:22:34.387Z,1005.01
2024-04-18T02:23:07.171Z,1005.11
2024-04-18T02:23:34.757Z,1005.21
2024-04-18T02:23:54.393Z,1005.21
2024-04-18T02:24:26.628Z,1005.21
2024-04-18T02:24:58.461Z,1005.01
2024-04-18T02:25:30.794Z,1005.01
2024-04-18T02:26:02.388Z,1005.11
2024-04-18T02:26:34.609Z,1005.11
2024-04-18T02:27:06.387Z,1005.21
2024-04-18T02:27:34.795Z,1005.21
2024-04-18T02:27:54.406Z,1005.21
2024-04-18T02:28:26.399Z,1005.21
2024-04-18T02:28:58.432Z,1005.21
2024-04-18T02:29:30.973Z,1005.21
2024-04-18T02:30:03.791Z,1005.32
2024-04-18T02:30:34.534Z,1005.32
2024-04-18T02:31:06.424Z,1005.32
2024-04-18T02:31:34.774Z,1005.32
2024-04-18T02:31:54.463Z,1005.32
2024-04-18T02:32:26.517Z,1005.32
2024-04-18T02:32:58.515Z,1005.21
2024-04-18T02:33:30.543Z,1005.21
2024-04-18T02:34:02.468Z,1005.32
2024-04-18T02:34:34.394Z,1005.32
2024-04-18T02:35:06.690Z,1005.21
2024-04-18T02:35:34.839Z,1005.11
2024-04-18T02:35:55.602Z,1005.11
2024-04-18T02:36:26.663Z,1005.11
2024-04-18T02:36:58.412Z,1005.11
2024-04-18T02:37:30.424Z,1005.11
2024-04-18T02:38:02.388Z,1005.42
2024-04-18T02:38:34.884Z,1005.42
2024-04-18T02:39:06.988Z,1005.11
2024-04-18T02:39:37.383Z,1005.11
2024-04-18T02:39:54.401Z,1005.11
2024-04-18T02:40:26.683Z,1005.11
2024-04-18T02:40:58.472Z,1005.21
2024-04-18T02:41:30.462Z,1005.21
2024-04-18T02:42:02.585Z,1005.32
2024-04-18T02:42:34.368Z,1005.32
2024-04-18T02:43:06.402Z,1005.32
2024-04-18T02:43:35.294Z,1005.21
2024-04-18T02:43:54.447Z,1005.21
2024-04-18T02:44:26.386Z,1005.21
2024-04-18T02:44:58.410Z,1005.21
2024-04-18T02:45:31.633Z,1005.21
2024-04-18T02:46:02.582Z,1005.32
2024-04-18T02:46:34.382Z,1005.32
2024-04-18T02:47:06.387Z,1005.32
2024-04-18T02:47:35.079Z,1005.32
2024-04-18T02:47:54.559Z,1005.32
2024-04-18T02:48:26.901Z,1005.32
2024-04-18T02:48:58.528Z,1005.32
2024-04-18T02:49:30.454Z,1005.32
2024-04-18T02:50:02.674Z,1005.42
2024-04-18T02:50:35.214Z,1005.42
2024-04-18T02:51:06.454Z,1005.21
2024-04-18T02:51:34.825Z,1005.32
2024-04-18T02:51:55.303Z,1005.32
2024-04-18T02:52:26.414Z,1005.32
2024-04-18T02:52:58.392Z,1005.32
2024-04-18T02:53:30.391Z,1005.32
2024-04-18T02:54:02.575Z,1005.42
2024-04-18T02:54:34.447Z,1005.42
2024-04-18T02:55:07.369Z,1005.52
2024-04-18T02:55:35.465Z,1005.21
2024-04-18T02:55:54.644Z,1005.21
2024-04-18T02:56:26.405Z,1005.21
2024-04-18T02:56:58.457Z,1005.42
2024-04-18T02:57:30.420Z,1005.42
2024-04-18T02:58:02.416Z,1005.42
2024-04-18T02:58:34.410Z,1005.42
2024-04-18T02:59:06.418Z,1005.32
2024-04-18T02:59:34.768Z,1005.42
2024-04-18T02:59:54.397Z,1005.42
2024-04-18T03:00:28.097Z,1005.42
2024-04-18T03:00:58.554Z,1005.32
2024-04-18T03:01:31.074Z,1005.32
2024-04-18T03:02:02.431Z,1005.52
2024-04-18T03:02:34.923Z,1005.52
2024-04-18T03:03:06.414Z,1005.52
2024-04-18T03:03:35.496Z,1005.52
2024-04-18T03:03:54.454Z,1005.52
2024-04-18T03:04:26.540Z,1005.52
2024-04-18T03:04:58.443Z,1005.42
2024-04-18T03:05:30.712Z,1005.42
2024-04-18T03:06:02.833Z,1005.52
2024-04-18T03:06:34.661Z,1005.52
2024-04-18T03:07:06.409Z,1005.52
2024-04-18T03:07:34.970Z,1005.62
2024-04-18T03:07:55.515Z,1005.62
2024-04-18T03:08:26.388Z,1005.62
2024-04-18T03:08:58.441Z,1005.42
2024-04-18T03:09:30.516Z,1005.42
2024-04-18T03:10:02.765Z,1005.42
2024-04-18T03:10:34.395Z,1005.42
2024-04-18T03:11:07.203Z,1005.52
2024-04-18T03:11:34.966Z,1005.62
2024-04-18T03:11:54.445Z,1005.62
2024-04-18T03:12:26.746Z,1005.62
2024-04-18T03:12:58.835Z,1005.62
2024-04-18T03:13:30.419Z,1005.62
2024-04-18T03:14:02.431Z,1005.52
2024-04-18T03:14:34.392Z,1005.52
2024-04-18T03:15:06.987Z,1005.52
2024-04-18T03:15:34.769Z,1005.52
2024-04-18T03:15:54.667Z,1005.52
2024-04-18T03:16:26.369Z,1005.52
2024-04-18T03:16:58.432Z,1005.52
2024-04-18T03:17:31.379Z,1005.52
2024-04-18T03:18:02.650Z,1005.62
2024-04-18T03:18:34.431Z,1005.62
2024-04-18T03:19:06.445Z,1005.52
2024-04-18T03:19:35.560Z,1005.52
2024-04-18T03:19:54.441Z,1005.52
2024-04-18T03:20:26.766Z,1005.52
2024-04-18T03:20:58.422Z,1005.72
2024-04-18T03:21:30.438Z,1005.72
2024-04-18T03:22:02.410Z,1005.72
2024-04-18T03:22:34.420Z,1005.72
2024-04-18T03:23:06.433Z,1005.62
2024-04-18T03:23:34.753Z,1005.62
2024-04-18T03:23:54.997Z,1005.62
2024-04-18T03:24:26.617Z,1005.62
2024-04-18T03:24:58.531Z,1005.93
2024-04-18T03:25:30.796Z,1005.93
2024-04-18T03:26:02.396Z,1005.72
2024-04-18T03:26:34.456Z,1005.72
2024-04-18T03:27:07.206Z,1005.72
2024-04-18T03:27:35.563Z,1005.72
2024-04-18T03:27:54.475Z,1005.72
2024-04-18T03:28:26.407Z,1005.72
2024-04-18T03:28:58.470Z,1005.72
2024-04-18T03:29:30.355Z,1005.72
2024-04-18T03:30:03.278Z,1005.62
2024-04-18T03:30:34.499Z,1005.62
2024-04-18T03:31:06.491Z,1005.62
2024-04-18T03:31:35.442Z,1005.72
2024-04-18T03:31:54.413Z,1005.72
2024-04-18T03:32:26.511Z,1005.72
2024-04-18T03:32:58.490Z,1005.72
2024-04-18T03:33:31.262Z,1005.72
2024-04-18T03:34:02.378Z,1005.62
2024-04-18T03:34:34.365Z,1005.62
2024-04-18T03:35:06.700Z,1005.72
2024-04-18T03:35:35.272Z,1005.52
2024-04-18T03:35:54.627Z,1005.52
2024-04-18T03:36:26.740Z,1005.52
2024-04-18T03:36:58.444Z,1005.72
2024-04-18T03:37:30.512Z,1005.72
2024-04-18T03:38:02.404Z,1005.62
2024-04-18T03:38:34.803Z,1005.62
2024-04-18T03:39:06.460Z,1005.82
2024-04-18T03:39:35.265Z,1005.82
2024-04-18T03:39:55.156Z,1005.82
2024-04-18T03:40:26.698Z,1005.82
2024-04-18T03:40:58.470Z,1005.93
2024-04-18T03:41:30.421Z,1005.93
2024-04-18T03:42:02.643Z,1005.82
2024-04-18T03:42:34.838Z,1005.82
2024-04-18T03:43:07.210Z,1005.82
2024-04-18T03:43:34.766Z,1005.82
2024-04-18T03:43:54.416Z,1005.82
2024-04-18T03:44:26.385Z,1005.82
2024-04-18T03:44:58.662Z,1005.72
2024-04-18T03:45:31.083Z,1005.72
2024-04-18T03:46:02.699Z,1005.72
2024-04-18T03:46:34.398Z,1005.72
2024-04-18T03:47:06.452Z,1005.72
2024-04-18T03:47:35.058Z,1005.82
2024-04-18T03:47:54.465Z,1005.82
2024-04-18T03:48:26.705Z,1005.82
2024-04-18T03:48:58.553Z,1005.82
2024-04-18T03:49:31.022Z,1005.82
2024-04-18T03:50:02.702Z,1005.72
2024-04-18T03:50:34.894Z,1005.72
2024-04-18T03:51:06.396Z,1005.82
2024-04-18T03:51:34.798Z,1005.82
2024-04-18T03:51:54.760Z,1005.82
2024-04-18T03:52:26.431Z,1005.82
2024-04-18T03:52:58.392Z,1005.82
2024-04-18T03:53:30.417Z,1005.82
2024-04-18T03:54:02.655Z,1005.82
2024-04-18T03:54:46.860Z,1005.82
2024-04-18T03:55:06.769Z,1005.93
2024-04-18T03:55:35.451Z,1005.72
2024-04-18T03:55:55.596Z,1005.72
2024-04-18T03:56:26.394Z,1005.72
2024-04-18T03:56:58.740Z,1006.03
2024-04-18T03:57:30.451Z,1006.03
2024-04-18T03:58:02.404Z,1006.03
2024-04-18T03:58:34.376Z,1006.03
2024-04-18T03:59:06.979Z,1005.93
2024-04-18T03:59:34.756Z,1005.72
2024-04-18T03:59:54.684Z,1005.72
2024-04-18T04:00:27.326Z,1005.72
2024-04-18T04:00:58.611Z,1006.03
2024-04-18T04:01:30.598Z,1006.03
2024-04-18T04:02:02.580Z,1005.93
2024-04-18T04:02:34.073Z,1005.93
2024-04-18T04:03:05.948Z,1006.03
2024-04-18T04:03:34.341Z,1005.82
2024-04-18T04:03:53.930Z,1005.82
2024-04-18T04:04:26.064Z,1005.82
2024-04-18T04:04:58.177Z,1006.03
2024-04-18T04:05:30.970Z,1006.03
2024-04-18T04:06:02.148Z,1005.82
2024-04-18T04:06:35.535Z,1005.82
2024-04-18T04:07:06.406Z,1005.93
2024-04-18T04:07:35.057Z,1005.93
2024-04-18T04:07:54.433Z,1005.93
2024-04-18T04:08:26.416Z,1005.93
2024-04-18T04:08:58.457Z,1005.82
2024-04-18T04:09:30.468Z,1005.82
2024-04-18T04:10:02.612Z,1006.03
2024-04-18T04:10:35.143Z,1006.03
2024-04-18T04:11:06.459Z,1006.23
2024-04-18T04:11:35.011Z,1005.93
2024-04-18T04:11:55.307Z,1005.93
2024-04-18T04:12:26.811Z,1005.93
2024-04-18T04:12:58.431Z,1006.13
2024-04-18T04:13:30.418Z,1006.13
2024-04-18T04:14:02.415Z,1006.03
2024-04-18T04:14:34.416Z,1006.03
2024-04-18T04:15:07.873Z,1005.93
2024-04-18T04:15:35.503Z,1006.13
2024-04-18T04:15:54.731Z,1006.13
2024-04-18T04:16:26.452Z,1006.13
2024-04-18T04:16:58.447Z,1006.23
2024-04-18T04:17:30.464Z,1006.23
2024-04-18T04:18:02.734Z,1006.13
2024-04-18T04:18:34.590Z,1006.13
2024-04-18T04:19:06.621Z,1006.23
2024-04-18T04:19:34.781Z,1006.13
2024-04-18T04:19:54.403Z,1006.13
2024-04-18T04:20:26.838Z,1006.13
2024-04-18T04:20:58.407Z,1006.43
2024-04-18T04:21:31.371Z,1006.43
2024-04-18T04:22:02.406Z,1006.03
2024-04-18T04:22:34.400Z,1006.03
2024-04-18T04:23:06.416Z,1006.23
2024-04-18T04:23:34.761Z,1006.33
2024-04-18T04:23:54.440Z,1006.33
2024-04-18T04:24:26.664Z,1006.33
2024-04-18T04:24:58.418Z,1006.13
2024-04-18T04:25:30.858Z,1006.13
2024-04-18T04:26:02.441Z,1006.33
2024-04-18T04:26:34.482Z,1006.33
2024-04-18T04:27:06.470Z,1006.43
2024-04-18T04:27:34.979Z,1006.13
2024-04-18T04:27:55.175Z,1006.13
2024-04-18T04:28:26.408Z,1006.13
2024-04-18T04:28:58.400Z,1006.43
2024-04-18T04:29:30.400Z,1006.43
2024-04-18T04:30:03.251Z,1006.13
2024-04-18T04:30:34.462Z,1006.13
2024-04-18T04:31:07.128Z,1006.13
2024-04-18T04:31:34.771Z,1006.53
2024-04-18T04:31:54.464Z,1006.53
2024-04-18T04:32:26.468Z,1006.53
2024-04-18T04:32:58.484Z,1006.43
2024-04-18T04:33:30.568Z,1006.43
2024-04-18T04:34:02.462Z,1006.13
2024-04-18T04:34:34.568Z,1006.13
2024-04-18T04:35:06.836Z,1006.43
2024-04-18T04:35:34.811Z,1006.23
2024-04-18T04:35:54.766Z,1006.23
2024-04-18T04:36:26.809Z,1006.23
2024-04-18T04:36:58.506Z,1006.43
2024-04-18T04:37:31.300Z,1006.43
2024-04-18T04:38:02.619Z,1006.53
2024-04-18T04:38:34.927Z,1006.53
2024-04-18T04:39:06.590Z,1006.53
2024-04-18T04:39:34.964Z,1006.23
2024-04-18T04:39:54.577Z,1006.23
2024-04-18T04:40:26.820Z,1006.23
2024-04-18T04:40:58.571Z,1006.23
2024-04-18T04:41:30.575Z,1006.23
2024-04-18T04:42:05.310Z,1006.23
2024-04-18T04:42:34.627Z,1006.23
2024-04-18T04:43:06.508Z,1006.23
2024-04-18T04:43:35.152Z,1006.33
2024-04-18T04:43:55.400Z,1006.33
2024-04-18T04:44:26.534Z,1006.33
2024-04-18T04:44:58.510Z,1006.53
2024-04-18T04:45:31.079Z,1006.53
2024-04-18T04:46:02.702Z,1006.53
2024-04-18T04:46:35.247Z,1006.53
2024-04-18T04:47:07.197Z,1006.53
2024-04-18T04:47:34.920Z,1006.33
2024-04-18T04:47:54.654Z,1006.33
2024-04-18T04:48:27.000Z,1006.33
2024-04-18T04:48:58.626Z,1006.53
2024-04-18T04:49:30.605Z,1006.53
2024-04-18T04:50:02.799Z,1006.53
2024-04-18T04:50:34.495Z,1006.53
2024-04-18T04:51:07.393Z,1006.43
2024-04-18T04:51:35.550Z,1006.53
2024-04-18T04:51:54.605Z,1006.53
2024-04-18T04:52:26.526Z,1006.53
2024-04-18T04:52:58.516Z,1006.53
2024-04-18T04:53:31.258Z,1006.53
2024-04-18T04:54:02.759Z,1006.53
2024-04-18T04:54:34.600Z,1006.53
2024-04-18T04:55:06.822Z,1006.64
2024-04-18T04:55:35.340Z,1006.43
2024-04-18T04:55:54.817Z,1006.43
2024-04-18T04:56:26.542Z,1006.43
2024-04-18T04:56:58.835Z,1006.64
2024-04-18T04:57:30.578Z,1006.64
2024-04-18T04:58:02.580Z,1006.53
2024-04-18T04:58:34.507Z,1006.53
2024-04-18T04:59:06.495Z,1006.64
2024-04-18T04:59:35.203Z,1006.43
2024-04-18T04:59:55.230Z,1006.43
2024-04-18T05:00:27.363Z,1006.43
2024-04-18T05:00:58.715Z,1006.64
2024-04-18T05:01:30.513Z,1006.64
2024-04-18T05:02:02.559Z,1006.74
2024-04-18T05:02:34.731Z,1006.74
2024-04-18T05:03:07.253Z,1006.84
2024-04-18T05:03:35.277Z,1006.74
2024-04-18T05:03:54.778Z,1006.74
2024-04-18T05:04:26.619Z,1006.74
2024-04-18T05:04:58.566Z,1006.64
2024-04-18T05:05:30.845Z,1006.64
2024-04-18T05:06:02.789Z,1006.84
2024-04-18T05:06:34.550Z,1006.84
2024-04-18T05:07:06.532Z,1006.84
2024-04-18T05:07:35.214Z,1006.74
2024-04-18T05:07:55.482Z,1006.74
2024-04-18T05:08:26.496Z,1006.74
2024-04-18T05:08:58.532Z,1006.74
2024-04-18T05:09:31.277Z,1006.74
2024-04-18T05:10:02.848Z,1006.64
2024-04-18T05:10:34.490Z,1006.64
2024-04-18T05:11:06.614Z,1006.74
2024-04-18T05:11:34.887Z,1006.74
2024-04-18T05:11:54.682Z,1006.74
2024-04-18T05:12:26.841Z,1006.74
2024-04-18T05:12:58.553Z,1006.64
2024-04-18T05:13:30.586Z,1006.64
2024-04-18T05:14:02.611Z,1006.74
2024-04-18T05:14:34.514Z,1006.74
2024-04-18T05:15:07.058Z,1006.74
2024-04-18T05:15:34.969Z,1006.94
2024-04-18T05:15:55.909Z,1006.94
2024-04-18T05:16:26.694Z,1006.94
2024-04-18T05:16:58.578Z,1006.84
2024-04-18T05:17:30.565Z,1006.84
2024-04-18T05:18:02.863Z,1006.84
2024-04-18T05:18:35.270Z,1006.84
2024-04-18T05:19:07.208Z,1006.84
2024-04-18T05:19:34.810Z,1006.94
2024-04-18T05:19:54.728Z,1006.94
2024-04-18T05:20:26.809Z,1006.94
2024-04-18T05:20:58.536Z,1006.84
2024-04-18T05:21:30.547Z,1006.84
2024-04-18T05:22:02.585Z,1006.94
2024-04-18T05:22:34.507Z,1006.94
2024-04-18T05:23:06.597Z,1006.74
2024-04-18T05:23:35.373Z,1006.94
2024-04-18T05:23:54.710Z,1006.94
2024-04-18T05:24:26.911Z,1006.94
2024-04-18T05:24:58.521Z,1007.11
2024-04-18T05:25:31.518Z,1007.11
2024-04-18T05:26:02.536Z,1006.84
2024-04-18T05:26:34.785Z,1006.84
2024-04-18T05:27:06.496Z,1006.84
2024-04-18T05:27:34.855Z,1006.94
2024-04-18T05:27:54.664Z,1006.94
2024-04-18T05:28:26.631Z,1006.94
2024-04-18T05:28:58.476Z,1006.94
2024-04-18T05:29:30.578Z,1006.94
2024-04-18T05:30:03.388Z,1006.94
2024-04-18T05:30:34.630Z,1006.94
2024-04-18T05:31:06.653Z,1007.11
2024-04-18T05:31:36.394Z,1007.01
2024-04-18T05:31:55.214Z,1007.01
2024-04-18T05:32:26.629Z,1007.01
2024-04-18T05:32:58.623Z,1007.01
2024-04-18T05:33:30.692Z,1007.01
2024-04-18T05:34:02.626Z,1007.11
2024-04-18T05:34:35.063Z,1007.11
2024-04-18T05:35:06.813Z,1007.21
2024-04-18T05:35:35.120Z,1007.11
2024-04-18T05:35:54.851Z,1007.11
2024-04-18T05:36:26.922Z,1007.11
2024-04-18T05:36:58.586Z,1007.11
2024-04-18T05:37:30.501Z,1007.11
2024-04-18T05:38:02.578Z,1007.01
2024-04-18T05:38:36.223Z,1007.01
2024-04-18T05:39:06.561Z,1007.21
2024-04-18T05:39:34.887Z,1007.21
2024-04-18T05:39:54.748Z,1007.21
2024-04-18T05:40:26.851Z,1007.21
2024-04-18T05:40:58.523Z,1007.21
2024-04-18T05:41:30.586Z,1007.21
2024-04-18T05:42:02.790Z,1007.01
2024-04-18T05:42:34.646Z,1007.01
2024-04-18T05:43:06.535Z,1007.21
2024-04-18T05:43:35.679Z,1007.31
2024-04-18T05:43:54.688Z,1007.31
2024-04-18T05:44:26.593Z,1007.31
2024-04-18T05:44:59.395Z,1007.01
2024-04-18T05:45:31.161Z,1007.01
2024-04-18T05:46:02.763Z,1007.21
2024-04-18T05:46:34.753Z,1007.21
2024-04-18T05:47:06.671Z,1007.21
2024-04-18T05:47:35.690Z,1007.21
2024-04-18T05:47:54.698Z,1007.21
2024-04-18T05:48:26.895Z,1007.21
2024-04-18T05:48:58.874Z,1007.31
2024-04-18T05:49:30.529Z,1007.31
2024-04-18T05:50:02.739Z,1007.31
2024-04-18T05:50:37.139Z,1007.31
2024-04-18T05:51:06.522Z,1007.21
2024-04-18T05:51:35.331Z,1007.21
2024-04-18T05:51:54.805Z,1007.21
2024-04-18T05:52:26.534Z,1007.21
2024-04-18T05:52:58.600Z,1007.11
2024-04-18T05:53:30.563Z,1007.11
2024-04-18T05:54:02.855Z,1007.31
2024-04-18T05:54:35.268Z,1007.31
2024-04-18T05:55:06.884Z,1007.42
2024-04-18T05:55:35.461Z,1007.21
2024-04-18T05:55:54.861Z,1007.21
2024-04-18T05:56:26.482Z,1007.21